<?xml version="1.0" encoding="UTF-8" standalone="no" ?>
<gpx xmlns="http://www.topografix.com/GPX/1/1" xmlns:xsi="http://www.w3.org/2001/XMLSchema-instance" xsi:schemaLocation="http://www.topografix.com/GPX/1/1 http://www.topografix.com/GPX/1/1/gpx.xsd" version="1.1" creator="VisuGPX - https://www.visugpx.com">
  <metadata>
    <name>Course à pied le matin</name>
  </metadata>
  <trk>
    <name><![CDATA[Course à pied le matin_1]]></name>
    <trkseg>
      <trkpt lat="48.71161" lon="7.16284">
        <ele>316.3</ele>
        <time>2023-10-18T06:24:36Z</time>
      </trkpt>
      <trkpt lat="48.71181" lon="7.16276">
        <ele>315.1</ele>
        <time>2023-10-18T06:24:44Z</time>
      </trkpt>
      <trkpt lat="48.71199" lon="7.16267">
        <ele>314.1</ele>
        <time>2023-10-18T06:24:51Z</time>
      </trkpt>
      <trkpt lat="48.71217" lon="7.16272">
        <ele>313.5</ele>
        <time>2023-10-18T06:24:57Z</time>
      </trkpt>
      <trkpt lat="48.71235" lon="7.16284">
        <ele>313</ele>
        <time>2023-10-18T06:25:05Z</time>
      </trkpt>
      <trkpt lat="48.7125" lon="7.16298">
        <ele>312.7</ele>
        <time>2023-10-18T06:25:11Z</time>
      </trkpt>
      <trkpt lat="48.71266" lon="7.16313">
        <ele>312.4</ele>
        <time>2023-10-18T06:25:17Z</time>
      </trkpt>
      <trkpt lat="48.71283" lon="7.16327">
        <ele>312.1</ele>
        <time>2023-10-18T06:25:25Z</time>
      </trkpt>
      <trkpt lat="48.71299" lon="7.16344">
        <ele>311.9</ele>
        <time>2023-10-18T06:25:32Z</time>
      </trkpt>
      <trkpt lat="48.71316" lon="7.16358">
        <ele>311.7</ele>
        <time>2023-10-18T06:25:39Z</time>
      </trkpt>
      <trkpt lat="48.71335" lon="7.16371">
        <ele>311.5</ele>
        <time>2023-10-18T06:25:46Z</time>
      </trkpt>
      <trkpt lat="48.71352" lon="7.16383">
        <ele>311.2</ele>
        <time>2023-10-18T06:25:52Z</time>
      </trkpt>
      <trkpt lat="48.71369" lon="7.16394">
        <ele>310.9</ele>
        <time>2023-10-18T06:25:58Z</time>
      </trkpt>
      <trkpt lat="48.71387" lon="7.16401">
        <ele>310.3</ele>
        <time>2023-10-18T06:26:05Z</time>
      </trkpt>
      <trkpt lat="48.71406" lon="7.16402">
        <ele>309.6</ele>
        <time>2023-10-18T06:26:12Z</time>
      </trkpt>
      <trkpt lat="48.71426" lon="7.16408">
        <ele>308.7</ele>
        <time>2023-10-18T06:26:19Z</time>
      </trkpt>
      <trkpt lat="48.71446" lon="7.16415">
        <ele>307.7</ele>
        <time>2023-10-18T06:26:25Z</time>
      </trkpt>
      <trkpt lat="48.71466" lon="7.16417">
        <ele>306.7</ele>
        <time>2023-10-18T06:26:32Z</time>
      </trkpt>
      <trkpt lat="48.71486" lon="7.16415">
        <ele>305.7</ele>
        <time>2023-10-18T06:26:39Z</time>
      </trkpt>
      <trkpt lat="48.71501" lon="7.16417">
        <ele>305</ele>
        <time>2023-10-18T06:26:44Z</time>
      </trkpt>
      <trkpt lat="48.71494" lon="7.16443">
        <ele>307</ele>
        <time>2023-10-18T06:26:52Z</time>
      </trkpt>
      <trkpt lat="48.71479" lon="7.16463">
        <ele>309.2</ele>
        <time>2023-10-18T06:27:00Z</time>
      </trkpt>
      <trkpt lat="48.71462" lon="7.16477">
        <ele>311.5</ele>
        <time>2023-10-18T06:27:08Z</time>
      </trkpt>
      <trkpt lat="48.7145" lon="7.16499">
        <ele>313.9</ele>
        <time>2023-10-18T06:27:17Z</time>
      </trkpt>
      <trkpt lat="48.71438" lon="7.16521">
        <ele>316.4</ele>
        <time>2023-10-18T06:27:26Z</time>
      </trkpt>
      <trkpt lat="48.71428" lon="7.16543">
        <ele>318.4</ele>
        <time>2023-10-18T06:27:35Z</time>
      </trkpt>
      <trkpt lat="48.71414" lon="7.16565">
        <ele>320.3</ele>
        <time>2023-10-18T06:27:44Z</time>
      </trkpt>
      <trkpt lat="48.71402" lon="7.16585">
        <ele>322.2</ele>
        <time>2023-10-18T06:27:53Z</time>
      </trkpt>
      <trkpt lat="48.71392" lon="7.1661">
        <ele>324.3</ele>
        <time>2023-10-18T06:28:02Z</time>
      </trkpt>
      <trkpt lat="48.71381" lon="7.16635">
        <ele>326.2</ele>
        <time>2023-10-18T06:28:10Z</time>
      </trkpt>
      <trkpt lat="48.71373" lon="7.16659">
        <ele>328.2</ele>
        <time>2023-10-18T06:28:18Z</time>
      </trkpt>
      <trkpt lat="48.71368" lon="7.16681">
        <ele>329.8</ele>
        <time>2023-10-18T06:28:25Z</time>
      </trkpt>
      <trkpt lat="48.71386" lon="7.16691">
        <ele>329.1</ele>
        <time>2023-10-18T06:28:35Z</time>
      </trkpt>
      <trkpt lat="48.71406" lon="7.16692">
        <ele>329.1</ele>
        <time>2023-10-18T06:28:42Z</time>
      </trkpt>
      <trkpt lat="48.71424" lon="7.16688">
        <ele>328.6</ele>
        <time>2023-10-18T06:28:48Z</time>
      </trkpt>
      <trkpt lat="48.71443" lon="7.16684">
        <ele>328</ele>
        <time>2023-10-18T06:28:55Z</time>
      </trkpt>
      <trkpt lat="48.71463" lon="7.16686">
        <ele>327.4</ele>
        <time>2023-10-18T06:29:02Z</time>
      </trkpt>
      <trkpt lat="48.71481" lon="7.16692">
        <ele>326.9</ele>
        <time>2023-10-18T06:29:09Z</time>
      </trkpt>
      <trkpt lat="48.715" lon="7.16698">
        <ele>326.5</ele>
        <time>2023-10-18T06:29:16Z</time>
      </trkpt>
      <trkpt lat="48.7152" lon="7.16706">
        <ele>326.1</ele>
        <time>2023-10-18T06:29:23Z</time>
      </trkpt>
      <trkpt lat="48.7154" lon="7.1671">
        <ele>325.8</ele>
        <time>2023-10-18T06:29:29Z</time>
      </trkpt>
      <trkpt lat="48.71558" lon="7.16714">
        <ele>325.2</ele>
        <time>2023-10-18T06:29:35Z</time>
      </trkpt>
      <trkpt lat="48.71577" lon="7.16721">
        <ele>324.6</ele>
        <time>2023-10-18T06:29:41Z</time>
      </trkpt>
      <trkpt lat="48.71594" lon="7.16729">
        <ele>324.2</ele>
        <time>2023-10-18T06:29:47Z</time>
      </trkpt>
      <trkpt lat="48.71612" lon="7.16738">
        <ele>323.7</ele>
        <time>2023-10-18T06:29:54Z</time>
      </trkpt>
      <trkpt lat="48.7163" lon="7.16747">
        <ele>323.2</ele>
        <time>2023-10-18T06:30:02Z</time>
      </trkpt>
      <trkpt lat="48.7165" lon="7.16752">
        <ele>322.6</ele>
        <time>2023-10-18T06:30:09Z</time>
      </trkpt>
      <trkpt lat="48.71669" lon="7.16761">
        <ele>322</ele>
        <time>2023-10-18T06:30:16Z</time>
      </trkpt>
      <trkpt lat="48.71688" lon="7.16767">
        <ele>321.5</ele>
        <time>2023-10-18T06:30:24Z</time>
      </trkpt>
      <trkpt lat="48.71706" lon="7.16773">
        <ele>321.1</ele>
        <time>2023-10-18T06:30:30Z</time>
      </trkpt>
      <trkpt lat="48.71723" lon="7.16788">
        <ele>320.6</ele>
        <time>2023-10-18T06:30:37Z</time>
      </trkpt>
      <trkpt lat="48.71739" lon="7.16801">
        <ele>320.1</ele>
        <time>2023-10-18T06:30:43Z</time>
      </trkpt>
      <trkpt lat="48.71755" lon="7.16818">
        <ele>319.7</ele>
        <time>2023-10-18T06:30:50Z</time>
      </trkpt>
      <trkpt lat="48.71771" lon="7.16831">
        <ele>319</ele>
        <time>2023-10-18T06:30:56Z</time>
      </trkpt>
      <trkpt lat="48.71789" lon="7.16838">
        <ele>318.2</ele>
        <time>2023-10-18T06:31:02Z</time>
      </trkpt>
      <trkpt lat="48.71805" lon="7.16821">
        <ele>316.9</ele>
        <time>2023-10-18T06:31:08Z</time>
      </trkpt>
      <trkpt lat="48.71819" lon="7.16802">
        <ele>315</ele>
        <time>2023-10-18T06:31:14Z</time>
      </trkpt>
      <trkpt lat="48.71833" lon="7.16783">
        <ele>313.4</ele>
        <time>2023-10-18T06:31:19Z</time>
      </trkpt>
      <trkpt lat="48.71845" lon="7.1676">
        <ele>312</ele>
        <time>2023-10-18T06:31:25Z</time>
      </trkpt>
      <trkpt lat="48.71858" lon="7.16736">
        <ele>309.8</ele>
        <time>2023-10-18T06:31:32Z</time>
      </trkpt>
      <trkpt lat="48.71869" lon="7.16713">
        <ele>308</ele>
        <time>2023-10-18T06:31:38Z</time>
      </trkpt>
      <trkpt lat="48.71879" lon="7.1669">
        <ele>305.9</ele>
        <time>2023-10-18T06:31:44Z</time>
      </trkpt>
      <trkpt lat="48.71891" lon="7.16665">
        <ele>303.4</ele>
        <time>2023-10-18T06:31:51Z</time>
      </trkpt>
      <trkpt lat="48.71903" lon="7.16642">
        <ele>301.2</ele>
        <time>2023-10-18T06:31:57Z</time>
      </trkpt>
      <trkpt lat="48.71914" lon="7.16617">
        <ele>299.5</ele>
        <time>2023-10-18T06:32:03Z</time>
      </trkpt>
      <trkpt lat="48.7192" lon="7.16588">
        <ele>298</ele>
        <time>2023-10-18T06:32:09Z</time>
      </trkpt>
      <trkpt lat="48.71925" lon="7.16557">
        <ele>296.3</ele>
        <time>2023-10-18T06:32:16Z</time>
      </trkpt>
      <trkpt lat="48.71938" lon="7.16532">
        <ele>295.6</ele>
        <time>2023-10-18T06:32:23Z</time>
      </trkpt>
      <trkpt lat="48.71949" lon="7.16507">
        <ele>295.7</ele>
        <time>2023-10-18T06:32:30Z</time>
      </trkpt>
      <trkpt lat="48.7196" lon="7.16482">
        <ele>296.6</ele>
        <time>2023-10-18T06:32:38Z</time>
      </trkpt>
      <trkpt lat="48.71971" lon="7.16456">
        <ele>297.9</ele>
        <time>2023-10-18T06:32:49Z</time>
      </trkpt>
      <trkpt lat="48.71979" lon="7.1643">
        <ele>299.8</ele>
        <time>2023-10-18T06:32:58Z</time>
      </trkpt>
      <trkpt lat="48.71991" lon="7.16415">
        <ele>300.3</ele>
        <time>2023-10-18T06:33:07Z</time>
      </trkpt>
      <trkpt lat="48.72009" lon="7.16422">
        <ele>301.1</ele>
        <time>2023-10-18T06:33:18Z</time>
      </trkpt>
      <trkpt lat="48.72027" lon="7.16426">
        <ele>302.6</ele>
        <time>2023-10-18T06:33:27Z</time>
      </trkpt>
      <trkpt lat="48.72045" lon="7.16427">
        <ele>304.7</ele>
        <time>2023-10-18T06:33:38Z</time>
      </trkpt>
      <trkpt lat="48.72064" lon="7.16427">
        <ele>307</ele>
        <time>2023-10-18T06:33:47Z</time>
      </trkpt>
      <trkpt lat="48.72082" lon="7.16421">
        <ele>309.5</ele>
        <time>2023-10-18T06:33:57Z</time>
      </trkpt>
      <trkpt lat="48.72097" lon="7.16401">
        <ele>312.5</ele>
        <time>2023-10-18T06:34:07Z</time>
      </trkpt>
      <trkpt lat="48.72111" lon="7.16383">
        <ele>315.5</ele>
        <time>2023-10-18T06:34:17Z</time>
      </trkpt>
      <trkpt lat="48.72125" lon="7.16366">
        <ele>318</ele>
        <time>2023-10-18T06:34:26Z</time>
      </trkpt>
      <trkpt lat="48.72138" lon="7.16343">
        <ele>319.3</ele>
        <time>2023-10-18T06:34:36Z</time>
      </trkpt>
      <trkpt lat="48.72138" lon="7.16339">
        <ele>319.6</ele>
        <time>2023-10-18T06:34:37Z</time>
      </trkpt>
      <trkpt lat="48.72123" lon="7.16322">
        <ele>319.8</ele>
        <time>2023-10-18T06:34:47Z</time>
      </trkpt>
      <trkpt lat="48.72106" lon="7.16305">
        <ele>320.1</ele>
        <time>2023-10-18T06:34:55Z</time>
      </trkpt>
      <trkpt lat="48.72089" lon="7.16293">
        <ele>320.3</ele>
        <time>2023-10-18T06:35:05Z</time>
      </trkpt>
      <trkpt lat="48.72072" lon="7.1628">
        <ele>320.6</ele>
        <time>2023-10-18T06:35:13Z</time>
      </trkpt>
      <trkpt lat="48.72056" lon="7.16264">
        <ele>320.8</ele>
        <time>2023-10-18T06:35:21Z</time>
      </trkpt>
      <trkpt lat="48.72047" lon="7.16256">
        <ele>320.9</ele>
        <time>2023-10-18T06:35:31Z</time>
      </trkpt>
      <trkpt lat="48.72028" lon="7.16231">
        <ele>321.2</ele>
        <time>2023-10-18T06:35:43Z</time>
      </trkpt>
      <trkpt lat="48.72008" lon="7.16214">
        <ele>321.5</ele>
        <time>2023-10-18T06:35:47Z</time>
      </trkpt>
      <trkpt lat="48.71992" lon="7.16195">
        <ele>321.8</ele>
        <time>2023-10-18T06:35:54Z</time>
      </trkpt>
      <trkpt lat="48.7198" lon="7.16174">
        <ele>322</ele>
        <time>2023-10-18T06:36:04Z</time>
      </trkpt>
      <trkpt lat="48.71966" lon="7.16155">
        <ele>322.2</ele>
        <time>2023-10-18T06:36:11Z</time>
      </trkpt>
      <trkpt lat="48.71951" lon="7.1614">
        <ele>322.5</ele>
        <time>2023-10-18T06:36:15Z</time>
      </trkpt>
      <trkpt lat="48.71936" lon="7.16121">
        <ele>322.7</ele>
        <time>2023-10-18T06:36:23Z</time>
      </trkpt>
      <trkpt lat="48.71921" lon="7.16102">
        <ele>323</ele>
        <time>2023-10-18T06:36:31Z</time>
      </trkpt>
      <trkpt lat="48.71909" lon="7.16078">
        <ele>323.2</ele>
        <time>2023-10-18T06:36:40Z</time>
      </trkpt>
      <trkpt lat="48.719" lon="7.16054">
        <ele>323.4</ele>
        <time>2023-10-18T06:36:49Z</time>
      </trkpt>
      <trkpt lat="48.71888" lon="7.16033">
        <ele>323.7</ele>
        <time>2023-10-18T06:36:56Z</time>
      </trkpt>
      <trkpt lat="48.71877" lon="7.16009">
        <ele>323.9</ele>
        <time>2023-10-18T06:37:02Z</time>
      </trkpt>
      <trkpt lat="48.71867" lon="7.15985">
        <ele>324.1</ele>
        <time>2023-10-18T06:37:10Z</time>
      </trkpt>
      <trkpt lat="48.71857" lon="7.1596">
        <ele>324.4</ele>
        <time>2023-10-18T06:37:19Z</time>
      </trkpt>
      <trkpt lat="48.71847" lon="7.15936">
        <ele>324.6</ele>
        <time>2023-10-18T06:37:27Z</time>
      </trkpt>
      <trkpt lat="48.71833" lon="7.1592">
        <ele>324.8</ele>
        <time>2023-10-18T06:37:35Z</time>
      </trkpt>
      <trkpt lat="48.71817" lon="7.15938">
        <ele>325.1</ele>
        <time>2023-10-18T06:37:43Z</time>
      </trkpt>
      <trkpt lat="48.71807" lon="7.15961">
        <ele>325.3</ele>
        <time>2023-10-18T06:37:49Z</time>
      </trkpt>
      <trkpt lat="48.71794" lon="7.1598">
        <ele>325.9</ele>
        <time>2023-10-18T06:37:55Z</time>
      </trkpt>
      <trkpt lat="48.71776" lon="7.15983">
        <ele>327.2</ele>
        <time>2023-10-18T06:38:03Z</time>
      </trkpt>
      <trkpt lat="48.71756" lon="7.15982">
        <ele>328.7</ele>
        <time>2023-10-18T06:38:12Z</time>
      </trkpt>
      <trkpt lat="48.71737" lon="7.15983">
        <ele>330.3</ele>
        <time>2023-10-18T06:38:21Z</time>
      </trkpt>
      <trkpt lat="48.71719" lon="7.15985">
        <ele>331.7</ele>
        <time>2023-10-18T06:38:29Z</time>
      </trkpt>
      <trkpt lat="48.717" lon="7.15986">
        <ele>332.9</ele>
        <time>2023-10-18T06:38:36Z</time>
      </trkpt>
      <trkpt lat="48.71682" lon="7.15984">
        <ele>333.9</ele>
        <time>2023-10-18T06:38:43Z</time>
      </trkpt>
      <trkpt lat="48.71677" lon="7.15981">
        <ele>334.1</ele>
        <time>2023-10-18T06:38:44Z</time>
      </trkpt>
      <trkpt lat="48.71671" lon="7.15954">
        <ele>334.8</ele>
        <time>2023-10-18T06:38:53Z</time>
      </trkpt>
      <trkpt lat="48.71669" lon="7.15925">
        <ele>335.3</ele>
        <time>2023-10-18T06:39:01Z</time>
      </trkpt>
      <trkpt lat="48.7167" lon="7.15894">
        <ele>335.6</ele>
        <time>2023-10-18T06:39:09Z</time>
      </trkpt>
      <trkpt lat="48.7167" lon="7.15866">
        <ele>335.9</ele>
        <time>2023-10-18T06:39:15Z</time>
      </trkpt>
      <trkpt lat="48.71671" lon="7.15836">
        <ele>336.2</ele>
        <time>2023-10-18T06:39:22Z</time>
      </trkpt>
      <trkpt lat="48.71672" lon="7.15808">
        <ele>336.4</ele>
        <time>2023-10-18T06:39:29Z</time>
      </trkpt>
      <trkpt lat="48.71669" lon="7.15777">
        <ele>336.5</ele>
        <time>2023-10-18T06:39:36Z</time>
      </trkpt>
      <trkpt lat="48.71666" lon="7.15748">
        <ele>336.8</ele>
        <time>2023-10-18T06:39:43Z</time>
      </trkpt>
      <trkpt lat="48.71665" lon="7.1572">
        <ele>337</ele>
        <time>2023-10-18T06:39:50Z</time>
      </trkpt>
      <trkpt lat="48.71666" lon="7.15692">
        <ele>337.4</ele>
        <time>2023-10-18T06:39:57Z</time>
      </trkpt>
      <trkpt lat="48.71666" lon="7.15664">
        <ele>337.9</ele>
        <time>2023-10-18T06:40:03Z</time>
      </trkpt>
      <trkpt lat="48.71668" lon="7.15637">
        <ele>338.3</ele>
        <time>2023-10-18T06:40:09Z</time>
      </trkpt>
      <trkpt lat="48.71672" lon="7.15609">
        <ele>338.6</ele>
        <time>2023-10-18T06:40:15Z</time>
      </trkpt>
      <trkpt lat="48.71677" lon="7.15582">
        <ele>339</ele>
        <time>2023-10-18T06:40:21Z</time>
      </trkpt>
      <trkpt lat="48.71687" lon="7.15555">
        <ele>339.5</ele>
        <time>2023-10-18T06:40:28Z</time>
      </trkpt>
      <trkpt lat="48.71698" lon="7.15529">
        <ele>340</ele>
        <time>2023-10-18T06:40:35Z</time>
      </trkpt>
      <trkpt lat="48.71708" lon="7.15505">
        <ele>340.6</ele>
        <time>2023-10-18T06:40:41Z</time>
      </trkpt>
      <trkpt lat="48.71718" lon="7.15481">
        <ele>341.3</ele>
        <time>2023-10-18T06:40:48Z</time>
      </trkpt>
      <trkpt lat="48.71727" lon="7.15456">
        <ele>342.1</ele>
        <time>2023-10-18T06:40:55Z</time>
      </trkpt>
      <trkpt lat="48.71738" lon="7.15432">
        <ele>343.1</ele>
        <time>2023-10-18T06:41:02Z</time>
      </trkpt>
      <trkpt lat="48.71748" lon="7.1541">
        <ele>344</ele>
        <time>2023-10-18T06:41:09Z</time>
      </trkpt>
      <trkpt lat="48.71758" lon="7.15385">
        <ele>344.7</ele>
        <time>2023-10-18T06:41:16Z</time>
      </trkpt>
      <trkpt lat="48.71768" lon="7.1536">
        <ele>345.3</ele>
        <time>2023-10-18T06:41:23Z</time>
      </trkpt>
      <trkpt lat="48.71779" lon="7.15335">
        <ele>345.8</ele>
        <time>2023-10-18T06:41:30Z</time>
      </trkpt>
      <trkpt lat="48.71788" lon="7.15311">
        <ele>346.1</ele>
        <time>2023-10-18T06:41:36Z</time>
      </trkpt>
      <trkpt lat="48.71789" lon="7.15282">
        <ele>346.5</ele>
        <time>2023-10-18T06:41:43Z</time>
      </trkpt>
      <trkpt lat="48.71779" lon="7.15257">
        <ele>346.8</ele>
        <time>2023-10-18T06:41:50Z</time>
      </trkpt>
      <trkpt lat="48.71767" lon="7.15232">
        <ele>347</ele>
        <time>2023-10-18T06:41:57Z</time>
      </trkpt>
      <trkpt lat="48.71762" lon="7.15205">
        <ele>347.1</ele>
        <time>2023-10-18T06:42:04Z</time>
      </trkpt>
      <trkpt lat="48.71757" lon="7.15179">
        <ele>347.2</ele>
        <time>2023-10-18T06:42:11Z</time>
      </trkpt>
      <trkpt lat="48.71749" lon="7.15152">
        <ele>347.5</ele>
        <time>2023-10-18T06:42:18Z</time>
      </trkpt>
      <trkpt lat="48.71742" lon="7.15124">
        <ele>347.7</ele>
        <time>2023-10-18T06:42:25Z</time>
      </trkpt>
      <trkpt lat="48.71734" lon="7.15094">
        <ele>347.9</ele>
        <time>2023-10-18T06:42:32Z</time>
      </trkpt>
      <trkpt lat="48.71727" lon="7.15065">
        <ele>348.2</ele>
        <time>2023-10-18T06:42:38Z</time>
      </trkpt>
      <trkpt lat="48.71722" lon="7.15035">
        <ele>348.6</ele>
        <time>2023-10-18T06:42:44Z</time>
      </trkpt>
      <trkpt lat="48.71719" lon="7.15006">
        <ele>348.6</ele>
        <time>2023-10-18T06:42:51Z</time>
      </trkpt>
      <trkpt lat="48.71716" lon="7.14976">
        <ele>348.6</ele>
        <time>2023-10-18T06:42:58Z</time>
      </trkpt>
      <trkpt lat="48.71714" lon="7.14945">
        <ele>348.6</ele>
        <time>2023-10-18T06:43:05Z</time>
      </trkpt>
      <trkpt lat="48.71709" lon="7.14914">
        <ele>348.6</ele>
        <time>2023-10-18T06:43:12Z</time>
      </trkpt>
      <trkpt lat="48.71704" lon="7.14885">
        <ele>348.9</ele>
        <time>2023-10-18T06:43:18Z</time>
      </trkpt>
      <trkpt lat="48.71696" lon="7.14859">
        <ele>349.1</ele>
        <time>2023-10-18T06:43:24Z</time>
      </trkpt>
      <trkpt lat="48.71688" lon="7.14847">
        <ele>348.8</ele>
        <time>2023-10-18T06:43:28Z</time>
      </trkpt>
      <trkpt lat="48.71669" lon="7.1485">
        <ele>348.2</ele>
        <time>2023-10-18T06:43:36Z</time>
      </trkpt>
      <trkpt lat="48.71649" lon="7.14857">
        <ele>348</ele>
        <time>2023-10-18T06:43:44Z</time>
      </trkpt>
      <trkpt lat="48.71632" lon="7.14863">
        <ele>347.9</ele>
        <time>2023-10-18T06:43:51Z</time>
      </trkpt>
      <trkpt lat="48.71612" lon="7.14871">
        <ele>348</ele>
        <time>2023-10-18T06:43:59Z</time>
      </trkpt>
      <trkpt lat="48.71594" lon="7.14878">
        <ele>347.9</ele>
        <time>2023-10-18T06:44:06Z</time>
      </trkpt>
      <trkpt lat="48.71575" lon="7.14883">
        <ele>347.8</ele>
        <time>2023-10-18T06:44:13Z</time>
      </trkpt>
      <trkpt lat="48.71556" lon="7.14891">
        <ele>348</ele>
        <time>2023-10-18T06:44:20Z</time>
      </trkpt>
      <trkpt lat="48.71538" lon="7.14898">
        <ele>348.1</ele>
        <time>2023-10-18T06:44:27Z</time>
      </trkpt>
      <trkpt lat="48.71519" lon="7.14909">
        <ele>347.8</ele>
        <time>2023-10-18T06:44:35Z</time>
      </trkpt>
      <trkpt lat="48.71501" lon="7.14914">
        <ele>347.6</ele>
        <time>2023-10-18T06:44:41Z</time>
      </trkpt>
      <trkpt lat="48.71482" lon="7.14918">
        <ele>347.4</ele>
        <time>2023-10-18T06:44:48Z</time>
      </trkpt>
      <trkpt lat="48.71465" lon="7.14928">
        <ele>347.5</ele>
        <time>2023-10-18T06:44:56Z</time>
      </trkpt>
      <trkpt lat="48.71444" lon="7.14931">
        <ele>347.3</ele>
        <time>2023-10-18T06:45:03Z</time>
      </trkpt>
      <trkpt lat="48.71425" lon="7.14937">
        <ele>347.2</ele>
        <time>2023-10-18T06:45:10Z</time>
      </trkpt>
      <trkpt lat="48.71406" lon="7.14947">
        <ele>347.2</ele>
        <time>2023-10-18T06:45:18Z</time>
      </trkpt>
      <trkpt lat="48.71388" lon="7.14952">
        <ele>346.9</ele>
        <time>2023-10-18T06:45:24Z</time>
      </trkpt>
      <trkpt lat="48.71367" lon="7.14959">
        <ele>346.2</ele>
        <time>2023-10-18T06:45:31Z</time>
      </trkpt>
      <trkpt lat="48.71348" lon="7.14967">
        <ele>346.1</ele>
        <time>2023-10-18T06:45:38Z</time>
      </trkpt>
      <trkpt lat="48.71328" lon="7.14974">
        <ele>346.3</ele>
        <time>2023-10-18T06:45:45Z</time>
      </trkpt>
      <trkpt lat="48.71308" lon="7.1498">
        <ele>345.5</ele>
        <time>2023-10-18T06:45:53Z</time>
      </trkpt>
      <trkpt lat="48.71288" lon="7.14976">
        <ele>344.6</ele>
        <time>2023-10-18T06:46:00Z</time>
      </trkpt>
      <trkpt lat="48.71269" lon="7.14979">
        <ele>344</ele>
        <time>2023-10-18T06:46:09Z</time>
      </trkpt>
      <trkpt lat="48.71251" lon="7.14988">
        <ele>343.4</ele>
        <time>2023-10-18T06:46:19Z</time>
      </trkpt>
      <trkpt lat="48.71234" lon="7.15002">
        <ele>342.8</ele>
        <time>2023-10-18T06:46:28Z</time>
      </trkpt>
      <trkpt lat="48.71217" lon="7.15012">
        <ele>342.4</ele>
        <time>2023-10-18T06:46:37Z</time>
      </trkpt>
      <trkpt lat="48.71205" lon="7.15015">
        <ele>342.2</ele>
        <time>2023-10-18T06:46:43Z</time>
      </trkpt>
      <trkpt lat="48.71202" lon="7.15015">
        <ele>342.2</ele>
        <time>2023-10-18T06:46:45Z</time>
      </trkpt>
      <trkpt lat="48.71199" lon="7.15018">
        <ele>342.1</ele>
        <time>2023-10-18T06:46:48Z</time>
      </trkpt>
      <trkpt lat="48.71196" lon="7.1502">
        <ele>342.1</ele>
        <time>2023-10-18T06:46:50Z</time>
      </trkpt>
      <trkpt lat="48.71192" lon="7.15022">
        <ele>342.1</ele>
        <time>2023-10-18T06:46:53Z</time>
      </trkpt>
      <trkpt lat="48.71173" lon="7.15028">
        <ele>341.7</ele>
        <time>2023-10-18T06:47:01Z</time>
      </trkpt>
      <trkpt lat="48.71155" lon="7.15033">
        <ele>341.5</ele>
        <time>2023-10-18T06:47:11Z</time>
      </trkpt>
      <trkpt lat="48.71135" lon="7.15038">
        <ele>341.4</ele>
        <time>2023-10-18T06:47:20Z</time>
      </trkpt>
      <trkpt lat="48.71115" lon="7.1504">
        <ele>341.4</ele>
        <time>2023-10-18T06:47:29Z</time>
      </trkpt>
      <trkpt lat="48.7111" lon="7.15037">
        <ele>341.4</ele>
        <time>2023-10-18T06:47:32Z</time>
      </trkpt>
      <trkpt lat="48.7111" lon="7.15007">
        <ele>341</ele>
        <time>2023-10-18T06:47:41Z</time>
      </trkpt>
      <trkpt lat="48.71102" lon="7.14985">
        <ele>340.2</ele>
        <time>2023-10-18T06:47:49Z</time>
      </trkpt>
      <trkpt lat="48.71084" lon="7.14984">
        <ele>340</ele>
        <time>2023-10-18T06:47:56Z</time>
      </trkpt>
      <trkpt lat="48.71064" lon="7.14978">
        <ele>339.7</ele>
        <time>2023-10-18T06:48:03Z</time>
      </trkpt>
      <trkpt lat="48.71046" lon="7.14969">
        <ele>339.5</ele>
        <time>2023-10-18T06:48:09Z</time>
      </trkpt>
      <trkpt lat="48.71027" lon="7.14963">
        <ele>339.8</ele>
        <time>2023-10-18T06:48:17Z</time>
      </trkpt>
      <trkpt lat="48.71018" lon="7.14958">
        <ele>339.9</ele>
        <time>2023-10-18T06:48:22Z</time>
      </trkpt>
      <trkpt lat="48.71013" lon="7.14985">
        <ele>340.2</ele>
        <time>2023-10-18T06:48:29Z</time>
      </trkpt>
      <trkpt lat="48.71006" lon="7.15013">
        <ele>340.6</ele>
        <time>2023-10-18T06:48:36Z</time>
      </trkpt>
      <trkpt lat="48.71" lon="7.15043">
        <ele>341.2</ele>
        <time>2023-10-18T06:48:43Z</time>
      </trkpt>
      <trkpt lat="48.70993" lon="7.1507">
        <ele>341.7</ele>
        <time>2023-10-18T06:48:50Z</time>
      </trkpt>
      <trkpt lat="48.70987" lon="7.15097">
        <ele>342.6</ele>
        <time>2023-10-18T06:48:57Z</time>
      </trkpt>
      <trkpt lat="48.70981" lon="7.15127">
        <ele>343.5</ele>
        <time>2023-10-18T06:49:05Z</time>
      </trkpt>
      <trkpt lat="48.70976" lon="7.15154">
        <ele>344.4</ele>
        <time>2023-10-18T06:49:12Z</time>
      </trkpt>
      <trkpt lat="48.70972" lon="7.15184">
        <ele>345.7</ele>
        <time>2023-10-18T06:49:20Z</time>
      </trkpt>
      <trkpt lat="48.70969" lon="7.15214">
        <ele>346.6</ele>
        <time>2023-10-18T06:49:28Z</time>
      </trkpt>
      <trkpt lat="48.70967" lon="7.15241">
        <ele>347.1</ele>
        <time>2023-10-18T06:49:36Z</time>
      </trkpt>
      <trkpt lat="48.70963" lon="7.15269">
        <ele>347.7</ele>
        <time>2023-10-18T06:49:44Z</time>
      </trkpt>
      <trkpt lat="48.7096" lon="7.15299">
        <ele>348.2</ele>
        <time>2023-10-18T06:49:52Z</time>
      </trkpt>
      <trkpt lat="48.70958" lon="7.15327">
        <ele>348.7</ele>
        <time>2023-10-18T06:49:59Z</time>
      </trkpt>
      <trkpt lat="48.70956" lon="7.15358">
        <ele>349.5</ele>
        <time>2023-10-18T06:50:07Z</time>
      </trkpt>
      <trkpt lat="48.70954" lon="7.15388">
        <ele>350.1</ele>
        <time>2023-10-18T06:50:15Z</time>
      </trkpt>
      <trkpt lat="48.70951" lon="7.15418">
        <ele>350.4</ele>
        <time>2023-10-18T06:50:23Z</time>
      </trkpt>
      <trkpt lat="48.7095" lon="7.15446">
        <ele>350.3</ele>
        <time>2023-10-18T06:50:30Z</time>
      </trkpt>
      <trkpt lat="48.7095" lon="7.15477">
        <ele>349.5</ele>
        <time>2023-10-18T06:50:37Z</time>
      </trkpt>
      <trkpt lat="48.70951" lon="7.15507">
        <ele>348.7</ele>
        <time>2023-10-18T06:50:44Z</time>
      </trkpt>
      <trkpt lat="48.70954" lon="7.15535">
        <ele>347.9</ele>
        <time>2023-10-18T06:50:50Z</time>
      </trkpt>
      <trkpt lat="48.70956" lon="7.15566">
        <ele>346.7</ele>
        <time>2023-10-18T06:50:57Z</time>
      </trkpt>
      <trkpt lat="48.70957" lon="7.15597">
        <ele>345.7</ele>
        <time>2023-10-18T06:51:04Z</time>
      </trkpt>
      <trkpt lat="48.70959" lon="7.15627">
        <ele>344.4</ele>
        <time>2023-10-18T06:51:11Z</time>
      </trkpt>
      <trkpt lat="48.7096" lon="7.15658">
        <ele>342.9</ele>
        <time>2023-10-18T06:51:18Z</time>
      </trkpt>
      <trkpt lat="48.70969" lon="7.15682">
        <ele>341.7</ele>
        <time>2023-10-18T06:51:26Z</time>
      </trkpt>
      <trkpt lat="48.70988" lon="7.15688">
        <ele>340.5</ele>
        <time>2023-10-18T06:51:32Z</time>
      </trkpt>
      <trkpt lat="48.71007" lon="7.15694">
        <ele>339.3</ele>
        <time>2023-10-18T06:51:39Z</time>
      </trkpt>
      <trkpt lat="48.71028" lon="7.15697">
        <ele>337.9</ele>
        <time>2023-10-18T06:51:46Z</time>
      </trkpt>
      <trkpt lat="48.71046" lon="7.15702">
        <ele>336.7</ele>
        <time>2023-10-18T06:51:52Z</time>
      </trkpt>
      <trkpt lat="48.71066" lon="7.15714">
        <ele>335.7</ele>
        <time>2023-10-18T06:51:58Z</time>
      </trkpt>
      <trkpt lat="48.71083" lon="7.15725">
        <ele>335.3</ele>
        <time>2023-10-18T06:52:04Z</time>
      </trkpt>
      <trkpt lat="48.71101" lon="7.15736">
        <ele>335.1</ele>
        <time>2023-10-18T06:52:10Z</time>
      </trkpt>
      <trkpt lat="48.71118" lon="7.15747">
        <ele>335</ele>
        <time>2023-10-18T06:52:16Z</time>
      </trkpt>
      <trkpt lat="48.71134" lon="7.15759">
        <ele>335</ele>
        <time>2023-10-18T06:52:22Z</time>
      </trkpt>
      <trkpt lat="48.71152" lon="7.15769">
        <ele>335.1</ele>
        <time>2023-10-18T06:52:28Z</time>
      </trkpt>
      <trkpt lat="48.7117" lon="7.1578">
        <ele>335.3</ele>
        <time>2023-10-18T06:52:34Z</time>
      </trkpt>
      <trkpt lat="48.71188" lon="7.15787">
        <ele>335.5</ele>
        <time>2023-10-18T06:52:40Z</time>
      </trkpt>
      <trkpt lat="48.71208" lon="7.15794">
        <ele>335.9</ele>
        <time>2023-10-18T06:52:47Z</time>
      </trkpt>
      <trkpt lat="48.71224" lon="7.15809">
        <ele>336.2</ele>
        <time>2023-10-18T06:52:54Z</time>
      </trkpt>
      <trkpt lat="48.71237" lon="7.15831">
        <ele>336.1</ele>
        <time>2023-10-18T06:53:01Z</time>
      </trkpt>
      <trkpt lat="48.71248" lon="7.15854">
        <ele>335.6</ele>
        <time>2023-10-18T06:53:08Z</time>
      </trkpt>
      <trkpt lat="48.7126" lon="7.15877">
        <ele>335.1</ele>
        <time>2023-10-18T06:53:14Z</time>
      </trkpt>
      <trkpt lat="48.71272" lon="7.15898">
        <ele>334.8</ele>
        <time>2023-10-18T06:53:20Z</time>
      </trkpt>
      <trkpt lat="48.71284" lon="7.15919">
        <ele>334.3</ele>
        <time>2023-10-18T06:53:26Z</time>
      </trkpt>
      <trkpt lat="48.71297" lon="7.15942">
        <ele>333.7</ele>
        <time>2023-10-18T06:53:33Z</time>
      </trkpt>
      <trkpt lat="48.71303" lon="7.15968">
        <ele>332.5</ele>
        <time>2023-10-18T06:53:39Z</time>
      </trkpt>
      <trkpt lat="48.71307" lon="7.15997">
        <ele>330.6</ele>
        <time>2023-10-18T06:53:45Z</time>
      </trkpt>
      <trkpt lat="48.71314" lon="7.16025">
        <ele>328.6</ele>
        <time>2023-10-18T06:53:51Z</time>
      </trkpt>
      <trkpt lat="48.71322" lon="7.1605">
        <ele>327</ele>
        <time>2023-10-18T06:53:56Z</time>
      </trkpt>
      <trkpt lat="48.71329" lon="7.16077">
        <ele>325.6</ele>
        <time>2023-10-18T06:54:02Z</time>
      </trkpt>
      <trkpt lat="48.71319" lon="7.161">
        <ele>324.8</ele>
        <time>2023-10-18T06:54:08Z</time>
      </trkpt>
      <trkpt lat="48.71305" lon="7.16123">
        <ele>323.9</ele>
        <time>2023-10-18T06:54:14Z</time>
      </trkpt>
      <trkpt lat="48.71296" lon="7.16148">
        <ele>323.2</ele>
        <time>2023-10-18T06:54:19Z</time>
      </trkpt>
      <trkpt lat="48.71304" lon="7.16173">
        <ele>322.4</ele>
        <time>2023-10-18T06:54:25Z</time>
      </trkpt>
      <trkpt lat="48.71312" lon="7.16191">
        <ele>321.8</ele>
        <time>2023-10-18T06:54:30Z</time>
      </trkpt>
      <trkpt lat="48.71294" lon="7.16197">
        <ele>321.4</ele>
        <time>2023-10-18T06:54:35Z</time>
      </trkpt>
      <trkpt lat="48.71276" lon="7.16193">
        <ele>320.8</ele>
        <time>2023-10-18T06:54:40Z</time>
      </trkpt>
      <trkpt lat="48.71258" lon="7.16179">
        <ele>320.2</ele>
        <time>2023-10-18T06:54:46Z</time>
      </trkpt>
      <trkpt lat="48.71242" lon="7.16168">
        <ele>320</ele>
        <time>2023-10-18T06:54:52Z</time>
      </trkpt>
      <trkpt lat="48.71224" lon="7.16157">
        <ele>319.9</ele>
        <time>2023-10-18T06:54:58Z</time>
      </trkpt>
      <trkpt lat="48.71208" lon="7.16147">
        <ele>319.7</ele>
        <time>2023-10-18T06:55:04Z</time>
      </trkpt>
      <trkpt lat="48.71191" lon="7.16134">
        <ele>319.1</ele>
        <time>2023-10-18T06:55:10Z</time>
      </trkpt>
      <trkpt lat="48.71172" lon="7.16123">
        <ele>317.9</ele>
        <time>2023-10-18T06:55:16Z</time>
      </trkpt>
      <trkpt lat="48.71151" lon="7.16126">
        <ele>316.3</ele>
        <time>2023-10-18T06:55:22Z</time>
      </trkpt>
      <trkpt lat="48.71131" lon="7.16126">
        <ele>315.7</ele>
        <time>2023-10-18T06:55:27Z</time>
      </trkpt>
      <trkpt lat="48.71114" lon="7.16115">
        <ele>315.9</ele>
        <time>2023-10-18T06:55:33Z</time>
      </trkpt>
      <trkpt lat="48.71102" lon="7.1611">
        <ele>315.9</ele>
        <time>2023-10-18T06:55:38Z</time>
      </trkpt>
      <trkpt lat="48.711" lon="7.16116">
        <ele>315.9</ele>
        <time>2023-10-18T06:55:40Z</time>
      </trkpt>
      <trkpt lat="48.71097" lon="7.16145">
        <ele>316.2</ele>
        <time>2023-10-18T06:55:47Z</time>
      </trkpt>
      <trkpt lat="48.71094" lon="7.16176">
        <ele>317</ele>
        <time>2023-10-18T06:55:54Z</time>
      </trkpt>
      <trkpt lat="48.71093" lon="7.16206">
        <ele>318.1</ele>
        <time>2023-10-18T06:56:01Z</time>
      </trkpt>
      <trkpt lat="48.71101" lon="7.16231">
        <ele>318.1</ele>
        <time>2023-10-18T06:56:08Z</time>
      </trkpt>
      <trkpt lat="48.71116" lon="7.16247">
        <ele>317.9</ele>
        <time>2023-10-18T06:56:14Z</time>
      </trkpt>
      <trkpt lat="48.7113" lon="7.16266">
        <ele>317.4</ele>
        <time>2023-10-18T06:56:21Z</time>
      </trkpt>
      <trkpt lat="48.71138" lon="7.1627">
        <ele>317.2</ele>
        <time>2023-10-18T06:56:24Z</time>
      </trkpt>
    </trkseg>
  </trk>
</gpx>